createdAt,value
2023-02-06T00:00:25.129Z,-2.69
2023-02-06T00:13:29.005Z,-2.87
2023-02-06T00:28:06.538Z,-2.90
2023-02-06T00:39:42.315Z,-2.66
2023-02-06T00:56:09.662Z,-2.72
2023-02-06T01:06:46.687Z,-2.41
2023-02-06T01:12:12.622Z,-2.55
2023-02-06T01:28:25.745Z,-2.74
2023-02-06T01:33:27.618Z,-2.63
2023-02-06T02:00:03.421Z,-2.53
2023-02-06T02:10:01.038Z,-2.74
2023-02-06T02:15:13.567Z,-2.66
2023-02-06T02:20:40.955Z,-2.56
2023-02-06T02:26:04.745Z,-2.63
2023-02-06T02:31:25.805Z,-2.61
2023-02-06T02:36:26.224Z,-2.70
2023-02-06T02:41:26.457Z,-2.60
2023-02-06T02:52:22.233Z,-2.43
2023-02-06T03:02:58.147Z,-2.17
2023-02-06T03:08:31.255Z,-2.05
2023-02-06T03:18:48.928Z,-1.61
2023-02-06T03:23:22.338Z,-1.66
2023-02-06T03:28:05.900Z,-1.62
2023-02-06T03:32:59.882Z,-1.60
2023-02-06T03:38:14.765Z,-1.60
2023-02-06T03:42:52.479Z,-1.63
2023-02-06T03:47:16.544Z,-1.96
2023-02-06T03:52:04.495Z,-1.97
2023-02-06T03:56:40.077Z,-1.92
2023-02-06T04:01:19.379Z,-1.75
2023-02-06T04:05:53.026Z,-1.81
2023-02-06T04:10:02.144Z,-1.67
2023-02-06T04:14:45.303Z,-1.55
2023-02-06T04:19:13.100Z,-1.63
2023-02-06T04:23:45.806Z,-1.79
2023-02-06T04:32:48.619Z,-1.97
2023-02-06T04:43:11.120Z,-1.88
2023-02-06T04:47:24.312Z,-1.93
2023-02-06T04:51:31.761Z,-1.84
2023-02-06T04:55:43.738Z,-2.07
2023-02-06T04:59:50.147Z,-1.95
2023-02-06T05:04:10.698Z,-1.79
2023-02-06T05:08:30.796Z,-1.67
2023-02-06T05:12:38.251Z,-1.75
2023-02-06T05:16:43.712Z,-1.60
2023-02-06T05:21:04.935Z,-1.51
2023-02-06T05:25:34.954Z,-1.43
2023-02-06T05:29:57.209Z,-1.28
2023-02-06T05:34:10.696Z,-1.32
2023-02-06T05:38:44.496Z,-1.24
2023-02-06T05:49:05.851Z,-1.39
2023-02-06T05:55:19.802Z,-1.06
2023-02-06T06:14:29.949Z,-1.12
2023-02-06T06:24:35.387Z,-1.40
2023-02-06T06:29:22.411Z,-1.66
2023-02-06T06:34:13.513Z,-1.61
2023-02-06T06:39:26.066Z,-1.53
2023-02-06T06:49:36.184Z,-1.69
2023-02-06T06:54:22.383Z,-1.60
2023-02-06T06:58:41.566Z,-1.56
2023-02-06T07:03:14.531Z,-1.28
2023-02-06T07:08:03.617Z,-1.32
2023-02-06T07:12:56.340Z,-1.16
2023-02-06T07:18:01.591Z,-1.05
2023-02-06T07:23:16.454Z,-1.17
2023-02-06T07:38:39.388Z,-0.41
2023-02-06T07:44:12.073Z,-0.31
2023-02-06T07:49:56.825Z,-0.29
2023-02-06T08:01:04.406Z,-0.37
2023-02-06T08:06:06.538Z,-0.42
2023-02-06T08:11:43.708Z,-0.31
2023-02-06T08:22:17.191Z,-0.03
2023-02-06T08:26:28.586Z,-0.13
2023-02-06T08:31:35.183Z,-0.30
2023-02-06T08:37:20.824Z,-0.31
2023-02-06T08:42:04.300Z,-0.26
2023-02-06T08:46:46.308Z,-0.41
2023-02-06T08:56:54.190Z,-0.14
2023-02-06T08:57:53.505Z,-0.22
2023-02-06T09:02:02.205Z,0.11
2023-02-06T09:06:43.913Z,0.24
2023-02-06T09:11:18.039Z,0.26
2023-02-06T09:15:40.943Z,0.19
2023-02-06T09:19:55.279Z,0.25
2023-02-06T09:24:34.284Z,0.17
2023-02-06T09:28:49.690Z,0.40
2023-02-06T09:32:56.765Z,0.23
2023-02-06T09:37:08.283Z,0.63
2023-02-06T09:41:26.358Z,0.50
2023-02-06T09:45:37.108Z,0.57
2023-02-06T09:49:51.685Z,0.74
2023-02-06T09:54:11.260Z,0.55
2023-02-06T09:58:36.162Z,0.02
2023-02-06T10:03:20.658Z,-0.22
2023-02-06T10:07:49.477Z,-0.17
2023-02-06T10:12:38.318Z,-0.17
2023-02-06T10:17:20.187Z,-0.33
2023-02-06T10:21:32.763Z,-0.33
2023-02-06T10:26:07.690Z,-0.04
2023-02-06T10:30:38.135Z,-0.04
2023-02-06T10:40:19.361Z,-0.34
2023-02-06T10:44:38.849Z,-0.27
2023-02-06T10:49:06.012Z,-0.09
2023-02-06T10:53:23.337Z,0.02
2023-02-06T10:57:31.566Z,-0.06
2023-02-06T11:01:41.652Z,0.14
2023-02-06T11:05:51.141Z,0.26
2023-02-06T11:10:05.555Z,0.37
2023-02-06T11:14:31.687Z,0.38
2023-02-06T11:18:48.748Z,0.04
2023-02-06T11:22:57.330Z,0.28
2023-02-06T11:27:07.777Z,0.42
2023-02-06T11:31:33.773Z,0.37
2023-02-06T11:40:40.281Z,0.19
2023-02-06T11:44:46.627Z,0.22
2023-02-06T11:48:51.574Z,0.28
2023-02-06T11:53:08.706Z,0.46
2023-02-06T11:57:27.516Z,0.55
2023-02-06T12:06:36.161Z,0.57
2023-02-06T12:38:31.029Z,0.64
2023-02-06T12:43:08.932Z,0.61
2023-02-06T12:47:40.915Z,0.66
2023-02-06T12:51:57.341Z,0.55
2023-02-06T12:56:05.225Z,0.65
2023-02-06T13:00:45.783Z,0.67
2023-02-06T13:05:22.920Z,0.67
2023-02-06T13:09:32.492Z,0.66
2023-02-06T13:13:37.846Z,0.68
2023-02-06T13:17:46.946Z,0.73
2023-02-06T13:21:55.592Z,0.77
2023-02-06T13:26:02.384Z,0.69
2023-02-06T13:30:35.688Z,0.65
2023-02-06T13:34:42.112Z,0.62
2023-02-06T13:38:48.863Z,0.65
2023-02-06T13:43:04.729Z,0.57
2023-02-06T13:47:44.606Z,0.67
2023-02-06T13:52:19.658Z,0.75
2023-02-06T13:56:53.361Z,0.77
2023-02-06T14:01:01.082Z,0.89
2023-02-06T14:05:18.328Z,0.88
2023-02-06T14:09:44.949Z,0.94
2023-02-06T14:14:24.471Z,0.84
2023-02-06T14:18:51.135Z,0.80
2023-02-06T14:23:18.842Z,0.63
2023-02-06T14:27:36.375Z,0.73
2023-02-06T14:32:16.032Z,0.66
2023-02-06T14:41:20.149Z,0.41
2023-02-06T14:45:42.005Z,0.36
2023-02-06T14:49:50.762Z,0.28
2023-02-06T14:54:06.975Z,0.22
2023-02-06T14:58:23.073Z,0.22
2023-02-06T15:02:39.687Z,0.30
2023-02-06T15:07:24.682Z,0.43
2023-02-06T15:11:44.758Z,0.33
2023-02-06T15:16:01.402Z,0.45
2023-02-06T15:20:36.374Z,0.54
2023-02-06T15:25:08.107Z,0.69
2023-02-06T15:29:25.646Z,0.56
2023-02-06T15:34:13.872Z,0.46
2023-02-06T15:38:25.617Z,0.45
2023-02-06T15:42:37.122Z,0.56
2023-02-06T15:46:49.229Z,0.55
2023-02-06T15:51:19.173Z,0.48
2023-02-06T15:55:31.361Z,0.40
2023-02-06T16:00:01.078Z,0.40
2023-02-06T16:04:55.789Z,0.50
2023-02-06T16:09:18.033Z,0.50
2023-02-06T16:14:02.522Z,0.54
2023-02-06T16:23:38.952Z,0.23
2023-02-06T16:32:59.188Z,0.32
2023-02-06T16:37:18.564Z,0.32
2023-02-06T16:42:05.903Z,0.12
2023-02-06T16:51:44.533Z,0.01
2023-02-06T17:00:43.907Z,-0.05
2023-02-06T17:04:47.059Z,-0.13
2023-02-06T17:09:17.139Z,-0.11
2023-02-06T17:13:25.843Z,-0.20
2023-02-06T17:17:33.637Z,-0.17
2023-02-06T17:21:35.028Z,-0.07
2023-02-06T17:26:03.814Z,-0.64
2023-02-06T17:30:25.580Z,-0.53
2023-02-06T17:35:05.411Z,-0.55
2023-02-06T17:39:22.588Z,-0.42
2023-02-06T17:43:38.243Z,-0.75
2023-02-06T17:47:50.666Z,-0.60
2023-02-06T17:51:57.651Z,-0.62
2023-02-06T17:56:54.368Z,-0.86
2023-02-06T18:02:02.063Z,-0.45
2023-02-06T18:11:41.705Z,-0.39
2023-02-06T18:16:17.624Z,-0.31
2023-02-06T18:20:18.331Z,-0.79
2023-02-06T18:24:18.036Z,-0.50
2023-02-06T18:28:19.649Z,-0.36
2023-02-06T18:32:20.151Z,-0.48
2023-02-06T18:36:20.237Z,-0.51
2023-02-06T18:40:20.163Z,-0.62
2023-02-06T18:44:23.582Z,-0.53
2023-02-06T18:48:23.251Z,-1.08
2023-02-06T18:52:23.011Z,-0.58
2023-02-06T18:56:24.886Z,-0.62
2023-02-06T19:00:30.545Z,-0.72
2023-02-06T19:04:30.673Z,-0.77
2023-02-06T19:08:34.238Z,-0.69
2023-02-06T19:12:36.113Z,-0.56
2023-02-06T19:16:38.718Z,-0.81
2023-02-06T19:20:38.541Z,-0.43
2023-02-06T19:24:38.353Z,-0.34
2023-02-06T19:28:39.656Z,-0.02
2023-02-06T19:32:41.540Z,-0.12
2023-02-06T19:36:41.243Z,0.05
2023-02-06T19:40:40.405Z,-0.01
2023-02-06T19:44:39.760Z,-0.05
2023-02-06T19:48:43.480Z,0.16
2023-02-06T19:52:43.090Z,-0.01
2023-02-06T19:56:43.908Z,0.07
2023-02-06T20:00:43.597Z,0.11
2023-02-06T20:04:46.004Z,0.32
2023-02-06T20:08:47.330Z,0.26
2023-02-06T20:12:47.073Z,0.50
2023-02-06T20:16:47.394Z,0.15
2023-02-06T20:20:49.236Z,0.06
2023-02-06T20:24:48.295Z,-0.09
2023-02-06T20:28:47.935Z,0.03
2023-02-06T20:32:47.689Z,-0.01
2023-02-06T20:36:54.286Z,-0.09
2023-02-06T20:40:54.019Z,-0.15
2023-02-06T20:44:53.132Z,-0.20
2023-02-06T20:48:56.914Z,0.05
2023-02-06T20:52:58.284Z,0.23
2023-02-06T20:57:12.497Z,0.18
2023-02-06T21:01:24.302Z,0.10
2023-02-06T21:05:24.108Z,-0.10
2023-02-06T21:09:25.942Z,-0.15
2023-02-06T21:13:25.588Z,-0.48
2023-02-06T21:17:33.587Z,-0.74
2023-02-06T21:21:33.807Z,-0.72
2023-02-06T21:25:36.687Z,-0.77
2023-02-06T21:29:38.981Z,-0.67
2023-02-06T21:33:38.754Z,-0.55
2023-02-06T21:37:38.685Z,-0.50
2023-02-06T21:41:40.460Z,-0.43
2023-02-06T21:45:40.676Z,-0.38
2023-02-06T21:49:39.561Z,-0.44
2023-02-06T21:53:39.696Z,-0.33
2023-02-06T21:57:41.421Z,-0.50
2023-02-06T22:01:41.190Z,-0.72
2023-02-06T22:05:41.201Z,-0.74
2023-02-06T22:09:41.234Z,-0.89
2023-02-06T22:13:42.916Z,-0.65
2023-02-06T22:17:45.164Z,-0.36
2023-02-06T22:21:44.552Z,-0.47
2023-02-06T22:25:48.732Z,-0.34
2023-02-06T22:29:51.228Z,-0.19
2023-02-06T22:33:58.349Z,-0.09
2023-02-06T22:37:57.863Z,-0.13
2023-02-06T22:41:56.937Z,-0.26
2023-02-06T22:45:58.695Z,-0.18
2023-02-06T22:49:58.364Z,-0.13
2023-02-06T22:53:57.719Z,0.14
2023-02-06T22:57:57.534Z,0.33
2023-02-06T23:02:00.753Z,0.51
2023-02-06T23:06:03.020Z,0.32
2023-02-06T23:10:02.598Z,-0.05
2023-02-06T23:14:04.995Z,0.12
2023-02-06T23:18:06.347Z,0.20
2023-02-06T23:22:05.861Z,-0.11
2023-02-06T23:26:05.764Z,-0.45
2023-02-06T23:30:07.870Z,-0.49
2023-02-06T23:34:09.794Z,-0.58
2023-02-06T23:38:10.702Z,-0.53
2023-02-06T23:42:18.464Z,0.04
2023-02-06T23:46:17.618Z,0.15
2023-02-06T23:50:24.346Z,0.12
2023-02-06T23:54:23.401Z,-0.10
2023-02-06T23:58:22.936Z,-0.37
